Time;durP1;ratioP1;P1;durP2;ratioP2;P2;SDS_P1;SDS_P2;PMS_P1;PMS_P2;Temp;Humidity;BMP_temperature;BMP_pressure;BME280_temperature;BME280_humidity;BME280_pressure;Samples;Min_cycle;Max_cycle;Signal;HPM_P1;HPM_P2
2023/06/03 00:00:18;;;;;;;5.72;1.60;;;;;;;5.53;100.00;98289.00;5139412;28;20058;-57
2023/06/03 00:02:44;;;;;;;3.17;1.65;;;;;;;5.75;100.00;98310.13;5139464;28;20177;-59
2023/06/03 00:05:10;;;;;;;3.60;1.48;;;;;;;5.84;100.00;98301.78;5139262;28;20051;-55
2023/06/03 00:07:36;;;;;;;1.92;1.45;;;;;;;5.82;100.00;98280.34;5139119;27;20051;-63
2023/06/03 00:10:03;;;;;;;14.15;2.38;;;;;;;5.62;100.00;98276.03;5138908;28;20047;-64
2023/06/03 00:12:29;;;;;;;3.00;1.52;;;;;;;5.70;100.00;98310.41;5139526;28;20374;-60
2023/06/03 00:14:55;;;;;;;3.05;1.30;;;;;;;5.64;100.00;98325.41;5139136;28;20043;-60
2023/06/03 00:17:21;;;;;;;6.10;1.40;;;;;;;5.72;100.00;98337.25;5139350;28;20073;-57
2023/06/03 00:19:48;;;;;;;2.47;1.17;;;;;;;5.61;100.00;98356.81;5138761;28;20137;-59
2023/06/03 00:22:14;;;;;;;6.13;2.63;;;;;;;5.57;100.00;98366.81;5138752;28;20404;-59
2023/06/03 00:24:40;;;;;;;1.92;1.35;;;;;;;5.51;100.00;98387.25;5138791;28;20139;-59
2023/06/03 00:27:06;;;;;;;5.65;1.45;;;;;;;5.32;100.00;98401.50;5138825;28;20142;-62
2023/06/03 00:29:32;;;;;;;1.95;1.48;;;;;;;5.53;100.00;98416.78;5138777;27;20047;-65
2023/06/03 00:31:58;;;;;;;3.42;1.40;;;;;;;5.50;100.00;98407.41;5138761;28;20058;-63
2023/06/03 00:34:24;;;;;;;2.05;1.20;;;;;;;5.48;100.00;98417.06;5138989;28;20111;-57
2023/06/03 00:36:50;;;;;;;2.58;1.55;;;;;;;5.39;100.00;98426.16;5138605;27;20138;-58
2023/06/03 00:39:16;;;;;;;3.13;1.73;;;;;;;5.53;100.00;98442.06;5138918;28;20079;-54
2023/06/03 00:41:42;;;;;;;3.88;1.60;;;;;;;5.39;100.00;98428.09;5138536;28;20043;-55
2023/06/03 00:44:08;;;;;;;4.68;1.60;;;;;;;5.53;100.00;98455.66;5138890;28;20054;-60
2023/06/03 00:46:34;;;;;;;2.78;1.35;;;;;;;5.47;100.00;98453.53;5138376;28;20381;-65
2023/06/03 00:49:01;;;;;;;5.93;1.60;;;;;;;5.57;100.00;98461.97;5138793;28;20051;-55
2023/06/03 00:51:28;;;;;;;3.70;1.20;;;;;;;5.53;100.00;98446.69;5138611;28;20116;-59
2023/06/03 00:53:55;;;;;;;3.97;1.55;;;;;;;5.43;100.00;98453.41;5138502;28;20130;-62
2023/06/03 00:56:21;;;;;;;1.75;1.20;;;;;;;5.42;100.00;98508.94;5138594;27;20057;-59
2023/06/03 00:58:47;;;;;;;3.05;1.85;;;;;;;5.29;100.00;98510.13;5137752;27;20082;-62
2023/06/03 01:01:13;;;;;;;4.28;1.83;;;;;;;5.34;100.00;98562.31;5138516;28;20134;-57
2023/06/03 01:03:42;;;;;;;4.45;1.65;;;;;;;5.38;100.00;98559.69;5138345;28;20043;-64
2023/06/03 01:06:17;;;;;;;5.60;1.27;;;;;;;5.19;100.00;98568.47;5138288;27;20055;-59
2023/06/03 01:08:53;;;;;;;4.05;1.80;;;;;;;5.27;100.00;98612.97;5137997;28;20133;-57
2023/06/03 01:11:29;;;;;;;5.85;1.63;;;;;;;5.19;100.00;98637.19;5138490;28;20133;-59
2023/06/03 01:14:03;;;;;;;2.47;1.40;;;;;;;5.11;100.00;98662.56;5137966;28;20150;-62
2023/06/03 01:16:30;;;;;;;;;;;;;;;5.19;100.00;98671.72;5121752;28;20047;-59
2023/06/03 01:18:57;;;;;;;6.00;1.75;;;;;;;5.17;100.00;98674.78;5137845;28;19934;-62
2023/06/03 01:21:34;;;;;;;2.55;1.50;;;;;;;5.10;100.00;98709.13;5137857;28;20057;-61
2023/06/03 01:24:00;;;;;;;5.07;1.60;;;;;;;5.11;100.00;98724.28;5138243;28;20176;-59
2023/06/03 01:26:28;;;;;;;5.13;1.75;;;;;;;4.99;100.00;98782.09;5137662;28;20043;-64
2023/06/03 01:28:54;;;;;;;3.40;1.55;;;;;;;4.93;100.00;98795.13;5138187;28;20071;-57
2023/06/03 01:31:20;;;;;;;1.92;1.42;;;;;;;4.89;100.00;98834.91;5137778;27;20151;-54
2023/06/03 01:33:47;;;;;;;1.85;1.48;;;;;;;4.84;100.00;98856.88;5137973;28;20051;-64
2023/06/03 01:36:14;;;;;;;1.52;1.05;;;;;;;4.97;100.00;98871.31;5137528;27;20051;-59
2023/06/03 01:38:40;;;;;;;3.03;1.65;;;;;;;5.02;100.00;98897.47;5138010;27;20062;-53
2023/06/03 01:41:07;;;;;;;2.78;1.25;;;;;;;5.08;100.00;98910.50;5137717;28;20167;-63
2023/06/03 01:43:33;;;;;;;1.92;1.38;;;;;;;5.07;100.00;98908.91;5137666;28;20047;-54
2023/06/03 01:46:00;;;;;;;2.53;1.45;;;;;;;4.97;100.00;98922.13;5137754;28;20111;-64
2023/06/03 01:48:26;;;;;;;2.22;1.25;;;;;;;5.02;100.00;98911.84;5137599;28;20051;-56
2023/06/03 01:50:52;;;;;;;1.60;1.17;;;;;;;5.09;100.00;98909.38;5137853;28;20142;-67
2023/06/03 01:53:18;;;;;;;1.58;1.30;;;;;;;5.08;100.00;98891.47;5137450;28;20196;-64
2023/06/03 01:55:44;;;;;;;2.55;1.23;;;;;;;5.09;100.00;98889.56;5137811;28;20058;-60
2023/06/03 01:58:10;;;;;;;2.60;1.20;;;;;;;5.17;100.00;98888.69;5137408;28;20123;-60
2023/06/03 02:00:36;;;;;;;4.15;1.50;;;;;;;5.19;100.00;98883.69;5137690;28;20051;-56
2023/06/03 02:03:02;;;;;;;2.70;1.30;;;;;;;5.17;100.00;98865.03;5137177;28;20074;-59
2023/06/03 02:05:28;;;;;;;3.35;1.20;;;;;;;5.02;100.00;98900.19;5137517;27;20051;-59
2023/06/03 02:07:54;;;;;;;2.10;1.10;;;;;;;5.08;100.00;98915.94;5137194;28;20082;-62
2023/06/03 02:10:20;;;;;;;1.17;1.08;;;;;;;4.90;100.00;98885.44;5137225;27;20479;-64
2023/06/03 02:12:46;;;;;;;2.42;1.27;;;;;;;5.00;100.00;98935.84;5140944;28;20142;-64
2023/06/03 02:15:13;;;;;;;3.00;1.23;;;;;;;5.06;100.00;98941.84;5141272;28;20061;-59
2023/06/03 02:17:40;;;;;;;4.70;1.40;;;;;;;5.07;100.00;98921.72;5140880;27;20054;-54
2023/06/03 02:20:08;;;;;;;8.15;1.35;;;;;;;5.06;100.00;98950.00;5141011;28;20452;-62
2023/06/03 02:22:34;;;;;;;2.72;1.10;;;;;;;5.34;100.00;98948.31;5141105;28;20051;-65
2023/06/03 02:25:00;;;;;;;2.50;1.20;;;;;;;5.81;100.00;98903.63;5140819;28;20195;-64
2023/06/03 02:27:28;;;;;;;4.88;1.38;;;;;;;6.22;100.00;98761.06;5140850;28;20370;-64
2023/06/03 02:29:53;;;;;;;1.85;1.10;;;;;;;6.35;100.00;98618.31;5140716;28;20051;-55
2023/06/03 02:32:20;;;;;;;1.00;0.90;;;;;;;6.60;100.00;98506.50;5141053;28;20061;-55
2023/06/03 02:34:48;;;;;;;2.25;1.08;;;;;;;6.75;100.00;98407.59;5140544;28;20080;-64
2023/06/03 02:37:15;;;;;;;6.93;1.20;;;;;;;6.70;100.00;98402.44;5140689;27;20107;-61
2023/06/03 02:39:41;;;;;;;2.33;0.95;;;;;;;6.79;100.00;98374.97;5140497;28;20141;-65
2023/06/03 02:42:08;;;;;;;3.25;1.45;;;;;;;7.24;100.00;98340.81;5140306;28;20065;-60
2023/06/03 02:44:35;;;;;;;1.40;1.25;;;;;;;6.92;100.00;98324.63;5140643;28;20043;-63
2023/06/03 02:47:01;;;;;;;2.97;1.40;;;;;;;7.68;100.00;98324.00;5140563;28;20051;-57
2023/06/03 02:49:28;;;;;;;2.28;1.05;;;;;;;8.11;100.00;98330.88;5140592;27;20070;-66
2023/06/03 02:51:54;;;;;;;3.10;1.20;;;;;;;8.20;100.00;98369.63;5140384;28;20057;-62
2023/06/03 02:54:20;;;;;;;5.60;1.10;;;;;;;8.34;100.00;98401.03;5140651;28;20084;-58
2023/06/03 02:56:46;;;;;;;1.20;1.10;;;;;;;8.98;100.00;98453.06;5140236;28;20047;-63
2023/06/03 02:59:12;;;;;;;1.23;1.00;;;;;;;8.95;100.00;98496.38;5140586;27;20393;-64
2023/06/03 03:01:38;;;;;;;2.55;1.08;;;;;;;8.99;100.00;98522.97;5140145;28;20051;-64
2023/06/03 03:04:04;;;;;;;1.00;1.00;;;;;;;9.24;100.00;98584.25;5140514;27;20112;-56
2023/06/03 03:06:31;;;;;;;4.75;1.17;;;;;;;9.49;100.00;98624.84;5140234;27;20138;-62
2023/06/03 03:08:57;;;;;;;0.93;0.80;;;;;;;9.39;100.00;98629.00;5140195;28;20055;-65
2023/06/03 03:11:23;;;;;;;2.45;1.10;;;;;;;9.76;100.00;98642.78;5140251;28;20114;-65
2023/06/03 03:13:49;;;;;;;3.63;0.90;;;;;;;9.87;100.00;98686.75;5140051;28;20097;-65
2023/06/03 03:16:17;;;;;;;4.28;1.15;;;;;;;9.89;100.00;98729.00;5139989;28;20048;-61
2023/06/03 03:18:43;;;;;;;2.45;1.10;;;;;;;10.21;100.00;98706.72;5139996;28;20047;-60
2023/06/03 03:21:09;;;;;;;4.75;1.10;;;;;;;10.49;100.00;98747.38;5139722;27;20138;-55
2023/06/03 03:23:36;;;;;;;2.40;1.00;;;;;;;10.69;100.00;98793.81;5139517;28;20073;-64
2023/06/03 03:26:03;;;;;;;1.52;1.00;;;;;;;10.70;100.00;98826.34;5140018;28;20473;-56
2023/06/03 03:28:29;;;;;;;3.40;1.13;;;;;;;10.78;100.00;98838.97;5139776;28;20138;-57
2023/06/03 03:30:56;;;;;;;1.10;1.00;;;;;;;10.92;100.00;98846.56;5140148;28;20047;-65
2023/06/03 03:33:22;;;;;;;1.75;0.90;;;;;;;10.74;100.00;98831.88;5139797;28;20059;-61
2023/06/03 03:35:48;;;;;;;2.15;1.00;;;;;;;10.92;100.00;98845.78;5139748;27;20086;-55
2023/06/03 03:38:15;;;;;;;1.67;1.00;;;;;;;10.60;100.00;98854.41;5139418;28;20051;-64
2023/06/03 03:40:41;;;;;;;0.90;0.90;;;;;;;11.17;100.00;98832.34;5160310;27;20089;-65
2023/06/03 03:43:15;;;;;;;3.40;1.00;;;;;;;11.54;100.00;98876.22;5160370;27;20391;-65
2023/06/03 03:45:41;;;;;;;1.05;0.82;;;;;;;11.80;100.00;98913.72;5160087;27;20051;-55
2023/06/03 03:48:09;;;;;;;1.50;0.80;;;;;;;11.91;100.00;98919.31;5160556;27;20356;-59
2023/06/03 03:50:41;;;;;;;1.95;1.15;;;;;;;12.26;100.00;98949.03;5160140;27;20050;-65
2023/06/03 03:53:08;;;;;;;2.70;1.15;;;;;;;12.33;100.00;98954.59;5160043;27;20050;-65
2023/06/03 03:55:39;;;;;;;1.85;1.00;;;;;;;12.58;100.00;98973.22;5159991;27;20057;-56
2023/06/03 03:58:27;;;;;;;1.20;1.02;;;;;;;12.87;100.00;98980.47;5160400;27;20050;-64
2023/06/03 04:00:54;;;;;;;3.25;1.10;;;;;;;13.09;100.00;99000.63;5160229;27;20051;-65
2023/06/03 04:03:23;;;;;;;1.38;1.20;;;;;;;13.27;100.00;99005.50;5160122;27;20061;-61
2023/06/03 04:05:50;;;;;;;2.05;1.15;;;;;;;13.57;100.00;99018.97;5159954;27;20122;-61
2023/06/03 04:08:38;;;;;;;2.95;1.10;;;;;;;13.03;100.00;99021.47;5159911;27;20133;-62
2023/06/03 04:11:05;;;;;;;4.72;0.90;;;;;;;12.80;100.00;99007.16;5160075;27;20378;-56
2023/06/03 04:13:35;;;;;;;1.90;0.93;;;;;;;13.49;100.00;99033.88;5159699;27;20427;-58
2023/06/03 04:16:04;;;;;;;2.85;1.00;;;;;;;13.56;100.00;99028.41;5160186;27;20113;-56
2023/06/03 04:18:32;;;;;;;1.08;0.80;;;;;;;12.71;100.00;99002.00;5159908;27;20175;-56
2023/06/03 04:21:00;;;;;;;2.60;1.17;;;;;;;13.14;100.00;99011.28;5159826;27;20074;-64
2023/06/03 04:23:27;;;;;;;2.90;0.90;;;;;;;13.00;100.00;99024.97;5159608;27;20332;-64
2023/06/03 04:26:32;;;;;;;3.92;1.00;;;;;;;13.16;100.00;99017.22;5159395;27;20061;-64
2023/06/03 04:28:59;;;;;;;1.65;0.80;;;;;;;13.38;100.00;99037.38;5159887;27;20423;-54
2023/06/03 04:31:24;;;;;;;1.98;1.17;;;;;;;13.87;100.00;99035.19;5159511;27;20051;-56
2023/06/03 04:33:50;;;;;;;1.10;0.70;;;;;;;13.80;100.00;99058.00;5158897;27;20138;-60
2023/06/03 04:36:16;;;;;;;5.80;1.08;;;;;;;13.56;100.00;99056.75;5159267;27;20134;-63
2023/06/03 04:38:43;;;;;;;1.70;0.80;;;;;;;13.37;100.00;99048.78;5159647;27;20082;-61
2023/06/03 04:41:10;;;;;;;1.55;0.80;;;;;;;14.47;100.00;99066.81;5159104;27;20107;-62
2023/06/03 04:43:38;;;;;;;0.70;0.68;;;;;;;14.90;100.00;99084.16;5159657;27;20054;-59
2023/06/03 04:46:05;;;;;;;3.90;0.90;;;;;;;14.85;100.00;99100.31;5159012;27;20057;-63
2023/06/03 04:48:31;;;;;;;2.60;0.70;;;;;;;15.65;99.97;99105.28;5159250;27;20054;-55
2023/06/03 04:50:57;;;;;;;3.20;1.58;;;;;;;15.88;96.02;99111.16;5159633;27;20050;-62
2023/06/03 04:53:25;;;;;;;1.15;0.80;;;;;;;16.26;91.58;99124.38;5159229;27;20057;-60
2023/06/03 04:55:51;;;;;;;1.88;1.00;;;;;;;15.73;96.38;99113.19;5159418;27;20042;-64
2023/06/03 04:58:18;;;;;;;3.88;1.10;;;;;;;16.29;91.38;99120.81;5159039;27;20051;-54
2023/06/03 05:00:45;;;;;;;2.15;1.10;;;;;;;16.72;88.28;99126.84;5159253;27;20396;-64
2023/06/03 05:03:11;;;;;;;2.60;1.15;;;;;;;16.91;84.23;99133.84;5158861;27;20049;-56
2023/06/03 05:05:42;;;;;;;1.00;0.90;;;;;;;17.24;83.21;99132.38;5159139;27;20137;-56
2023/06/03 05:08:08;;;;;;;2.58;2.03;;;;;;;17.12;80.75;99132.88;5159028;27;20050;-63
2023/06/03 05:10:34;;;;;;;3.88;1.00;;;;;;;17.06;81.78;99135.31;5158816;27;20161;-54
2023/06/03 05:13:01;;;;;;;3.30;1.30;;;;;;;17.19;81.33;99138.34;5158869;27;20398;-59
2023/06/03 05:15:27;;;;;;;3.35;1.00;;;;;;;16.73;81.96;99138.69;5158870;27;20051;-53
2023/06/03 05:17:53;;;;;;;1.80;1.08;;;;;;;16.91;83.02;99147.69;5159073;27;20408;-56
2023/06/03 05:20:19;;;;;;;2.75;0.95;;;;;;;16.58;83.86;99138.81;5158752;27;20400;-54
2023/06/03 05:22:46;;;;;;;1.33;0.90;;;;;;;17.14;79.81;99147.09;5158867;27;20326;-58
2023/06/03 05:25:12;;;;;;;2.22;1.20;;;;;;;17.79;78.55;99145.28;5158574;27;20093;-59
2023/06/03 05:27:38;;;;;;;3.22;1.10;;;;;;;17.20;78.70;99153.00;5158856;27;20323;-55
2023/06/03 05:30:05;;;;;;;3.97;0.95;;;;;;;17.16;78.00;99150.28;5158453;27;20154;-64
2023/06/03 05:32:31;;;;;;;1.00;0.90;;;;;;;18.23;75.64;99159.41;5158964;27;20133;-56
2023/06/03 05:34:57;;;;;;;4.80;1.00;;;;;;;18.19;75.01;99158.66;5158351;27;20097;-53
2023/06/03 05:37:23;;;;;;;1.17;0.70;;;;;;;16.99;78.49;99165.03;5158181;27;20441;-54
2023/06/03 05:39:49;;;;;;;3.50;0.90;;;;;;;17.42;78.37;99159.91;5158573;27;20055;-56
2023/06/03 05:42:15;;;;;;;0.98;0.90;;;;;;;17.47;78.16;99159.47;5158522;27;20057;-53
2023/06/03 05:44:41;;;;;;;1.75;0.93;;;;;;;16.09;90.94;99151.72;5158390;27;20323;-55
2023/06/03 05:47:07;;;;;;;1.85;1.00;;;;;;;15.73;94.91;99143.59;5158337;27;20419;-58
2023/06/03 05:49:33;;;;;;;3.60;0.60;;;;;;;14.63;100.00;99141.72;5158507;27;20198;-63
2023/06/03 05:51:59;;;;;;;2.78;1.10;;;;;;;14.91;100.00;99134.63;5158226;27;20420;-63
2023/06/03 05:54:28;;;;;;;2.15;1.08;;;;;;;14.51;100.00;99137.34;5158383;27;20434;-64
2023/06/03 05:56:55;;;;;;;3.97;0.80;;;;;;;13.64;100.00;99113.44;5158399;27;20050;-62
2023/06/03 05:59:21;;;;;;;2.38;0.85;;;;;;;13.28;100.00;99104.19;5158711;27;20423;-60
2023/06/03 06:01:46;;;;;;;6.35;1.00;;;;;;;13.91;100.00;99090.31;5157936;27;20047;-60
2023/06/03 06:04:12;;;;;;;2.28;0.90;;;;;;;13.66;100.00;99107.53;5158416;27;20137;-56
2023/06/03 06:06:38;;;;;;;1.38;0.73;;;;;;;13.59;100.00;99113.78;5157933;27;20381;-54
2023/06/03 06:09:04;;;;;;;2.70;0.70;;;;;;;15.16;100.00;99135.41;5158398;27;20054;-54
2023/06/03 06:11:31;;;;;;;4.18;0.82;;;;;;;15.92;88.49;99164.44;5158141;27;20141;-55
2023/06/03 06:13:57;;;;;;;0.93;0.80;;;;;;;17.11;79.35;99170.88;5158152;27;20370;-55
2023/06/03 06:16:22;;;;;;;3.17;0.77;;;;;;;18.05;72.49;99192.91;5157895;27;20054;-61
2023/06/03 06:18:49;;;;;;;1.52;1.08;;;;;;;17.21;73.81;99185.03;5157941;27;20046;-57
2023/06/03 06:21:15;;;;;;;3.67;1.00;;;;;;;15.78;83.13;99183.84;5158047;27;20084;-64
2023/06/03 06:23:42;;;;;;;1.55;0.65;;;;;;;15.00;84.81;99193.00;5157636;27;20047;-54
2023/06/03 06:26:08;;;;;;;1.25;0.70;;;;;;;14.58;93.82;99177.97;5157985;27;20133;-64
2023/06/03 06:28:34;;;;;;;1.42;0.60;;;;;;;14.57;94.76;99168.13;5157762;27;20051;-65
2023/06/03 06:31:02;;;;;;;0.70;0.70;;;;;;;14.24;98.04;99171.94;5158021;27;20137;-64
2023/06/03 06:33:29;;;;;;;0.55;0.55;;;;;;;13.52;100.00;99168.06;5157667;27;20340;-59
2023/06/03 06:35:55;;;;;;;1.45;0.50;;;;;;;13.01;100.00;99149.59;5157400;27;20054;-54
2023/06/03 06:38:21;;;;;;;0.77;0.68;;;;;;;13.34;100.00;99152.22;5158160;27;20057;-65
2023/06/03 06:40:50;;;;;;;1.25;0.50;;;;;;;13.61;100.00;99163.00;5158504;27;20043;-65
2023/06/03 06:43:18;;;;;;;0.50;0.43;;;;;;;12.87;100.00;99164.81;5158319;27;20361;-64
2023/06/03 06:45:45;;;;;;;2.30;0.60;;;;;;;12.57;100.00;99150.41;5158280;27;20078;-65
2023/06/03 06:48:12;;;;;;;1.00;0.60;;;;;;;12.93;100.00;99179.03;5158600;27;20475;-67
2023/06/03 06:50:46;;;;;;;6.70;1.55;;;;;;;13.23;100.00;99175.31;5158707;27;20057;-62
2023/06/03 06:53:12;;;;;;;;;;;;;;;13.12;100.00;99167.75;5158637;27;20054;-62
2023/06/03 06:55:46;;;;;;;3.17;0.68;;;;;;;13.42;100.00;99180.59;5157453;27;19923;-60
2023/06/03 06:58:12;;;;;;;;;;;;;;;12.75;100.00;99162.34;5160888;27;20069;-61
2023/06/03 07:00:38;;;;;;;1.48;0.60;;;;;;;12.68;100.00;99168.56;5160981;27;19923;-61
2023/06/03 07:03:08;;;;;;;1.40;0.65;;;;;;;12.98;100.00;99153.91;5160967;27;20050;-57
2023/06/03 07:05:34;;;;;;;0.80;0.70;;;;;;;14.94;98.73;99189.06;5160762;27;20062;-63
2023/06/03 07:08:00;;;;;;;0.75;0.60;;;;;;;15.77;88.22;99207.94;5160817;27;20085;-56
2023/06/03 07:10:26;;;;;;;0.88;0.65;;;;;;;15.55;86.89;99211.91;5160941;27;20418;-53
2023/06/03 07:12:52;;;;;;;3.00;0.60;;;;;;;15.59;87.36;99222.94;5161022;27;20142;-57
2023/06/03 07:15:18;;;;;;;7.82;0.70;;;;;;;15.19;90.75;99211.13;5160984;27;20110;-63
2023/06/03 07:17:48;;;;;;;3.10;0.70;;;;;;;16.21;82.81;99219.66;5160633;27;20066;-56
2023/06/03 07:20:19;;;;;;;1.08;0.60;;;;;;;16.21;80.00;99220.44;5161064;27;20047;-63
2023/06/03 07:22:45;;;;;;;0.50;0.50;;;;;;;15.80;82.13;99219.41;5160504;27;20082;-63
2023/06/03 07:25:20;;;;;;;1.45;0.73;;;;;;;15.28;86.79;99217.06;5160960;27;20056;-59
2023/06/03 07:27:47;;;;;;;4.28;0.60;;;;;;;14.76;90.65;99211.09;5160722;27;20347;-63
2023/06/03 07:30:15;;;;;;;0.60;0.60;;;;;;;15.70;88.29;99207.97;5160647;27;20404;-57
2023/06/03 07:32:42;;;;;;;0.73;0.73;;;;;;;15.98;79.97;99218.13;5160650;27;20081;-60
2023/06/03 07:35:08;;;;;;;0.60;0.60;;;;;;;17.00;77.83;99216.47;5160490;27;20130;-63
2023/06/03 07:37:35;;;;;;;0.47;0.47;;;;;;;16.75;74.26;99227.69;5160369;27;20057;-53
2023/06/03 07:40:02;;;;;;;2.75;0.75;;;;;;;16.07;76.82;99226.03;5160221;27;20047;-63
2023/06/03 07:42:29;;;;;;;1.83;0.90;;;;;;;17.23;72.82;99238.03;5160701;27;20062;-64
2023/06/03 07:44:55;;;;;;;5.47;0.70;;;;;;;18.31;68.96;99238.56;5160595;27;20043;-56
2023/06/03 07:47:21;;;;;;;0.95;0.60;;;;;;;19.12;65.84;99249.78;5160537;27;20324;-60
2023/06/03 07:49:48;;;;;;;4.50;0.70;;;;;;;19.54;62.61;99252.28;5160112;27;20137;-65
2023/06/03 07:52:17;;;;;;;0.50;0.50;;;;;;;19.44;60.46;99262.38;5160505;27;20042;-64
2023/06/03 07:54:43;;;;;;;7.63;0.65;;;;;;;18.44;62.70;99252.69;5160169;27;20425;-64
2023/06/03 07:57:10;;;;;;;0.70;0.70;;;;;;;18.93;63.23;99278.25;5160206;27;20137;-64
2023/06/03 07:59:36;;;;;;;0.60;0.60;;;;;;;19.31;62.38;99261.41;5160192;27;20053;-55
2023/06/03 08:02:03;;;;;;;0.70;0.70;;;;;;;19.93;61.96;99265.53;5159845;27;20050;-53
2023/06/03 08:04:30;;;;;;;0.60;0.60;;;;;;;20.37;60.78;99260.72;5160163;27;20043;-54
2023/06/03 08:07:00;;;;;;;0.70;0.70;;;;;;;20.02;58.06;99279.66;5159948;27;20054;-53
2023/06/03 08:09:27;;;;;;;3.17;0.98;;;;;;;19.00;59.58;99253.16;5158728;27;20046;-56
2023/06/03 08:11:54;;;;;;;1.05;0.65;;;;;;;19.91;57.94;99268.72;5159712;27;20054;-65
2023/06/03 08:14:21;;;;;;;0.60;0.60;;;;;;;19.66;58.59;99274.75;5160139;27;20092;-58
2023/06/03 08:16:48;;;;;;;0.60;0.60;;;;;;;19.02;60.07;99262.63;5159602;27;20050;-62
2023/06/03 08:19:16;;;;;;;3.22;0.95;;;;;;;19.59;59.23;99272.03;5160140;27;20334;-59
2023/06/03 08:21:44;;;;;;;5.47;0.65;;;;;;;18.53;61.13;99272.41;5159852;27;20137;-62
2023/06/03 08:24:10;;;;;;;7.13;0.88;;;;;;;18.25;62.61;99265.22;5159748;27;20050;-64
2023/06/03 08:26:36;;;;;;;3.42;0.57;;;;;;;17.46;65.49;99268.75;5159538;27;20054;-63
2023/06/03 08:29:03;;;;;;;1.90;0.60;;;;;;;16.67;67.15;99272.00;5159161;27;20107;-56
2023/06/03 08:31:30;;;;;;;1.75;0.50;;;;;;;16.43;68.35;99275.69;5159685;27;20050;-65
2023/06/03 08:33:56;;;;;;;2.92;0.60;;;;;;;15.83;72.31;99271.09;5159440;27;20102;-58
2023/06/03 08:36:22;;;;;;;1.58;0.57;;;;;;;15.37;71.56;99285.72;5159495;27;20079;-63
2023/06/03 08:38:48;;;;;;;0.70;0.70;;;;;;;15.10;71.88;99291.63;5159331;27;20058;-59
2023/06/03 08:41:14;;;;;;;1.27;0.60;;;;;;;14.77;74.14;99279.72;5159452;27;20133;-59
2023/06/03 08:43:50;;;;;;;2.42;0.80;;;;;;;14.39;76.29;99274.81;5159094;27;20137;-54
2023/06/03 08:46:23;;;;;;;2.05;0.45;;;;;;;14.77;76.85;99271.44;5159548;27;20131;-61
2023/06/03 08:49:01;;;;;;;0.60;0.60;;;;;;;14.88;77.09;99267.91;5159031;27;20406;-59
2023/06/03 08:51:26;;;;;;;1.88;0.80;;;;;;;15.10;78.45;99277.81;5159434;27;20133;-65
2023/06/03 08:53:53;;;;;;;1.38;0.60;;;;;;;15.52;77.61;99276.22;5159193;27;20053;-61
2023/06/03 08:56:20;;;;;;;0.73;0.60;;;;;;;16.02;72.33;99283.72;5159028;27;20133;-65
2023/06/03 08:58:48;;;;;;;1.30;0.75;;;;;;;16.26;70.35;99291.16;5159536;27;20461;-55
2023/06/03 09:01:16;;;;;;;0.55;0.55;;;;;;;15.84;67.55;99292.81;5159031;27;20057;-54
2023/06/03 09:03:43;;;;;;;1.33;0.50;;;;;;;15.91;67.68;99300.31;5159278;27;20324;-54
2023/06/03 09:06:11;;;;;;;0.93;0.50;;;;;;;16.28;66.82;99299.84;5158816;27;20381;-59
2023/06/03 09:08:38;;;;;;;2.75;0.60;;;;;;;16.03;66.23;99307.41;5159290;27;20057;-59
2023/06/03 09:11:07;;;;;;;0.70;0.70;;;;;;;16.81;64.25;99312.69;5158937;27;20053;-56
2023/06/03 09:13:34;;;;;;;3.72;0.60;;;;;;;17.62;63.60;99301.47;5159040;27;20043;-60
2023/06/03 09:16:02;;;;;;;0.50;0.50;;;;;;;17.28;63.92;99301.34;5158895;27;20115;-66
2023/06/03 09:18:28;;;;;;;5.38;0.75;;;;;;;16.99;64.70;99306.28;5158668;27;20487;-61
2023/06/03 09:20:55;;;;;;;0.60;0.60;;;;;;;17.84;63.55;99308.44;5158391;27;20141;-58
2023/06/03 09:23:21;;;;;;;0.60;0.60;;;;;;;18.67;60.11;99313.09;5158556;27;20072;-61
2023/06/03 09:25:47;;;;;;;0.60;0.60;;;;;;;18.99;58.60;99312.69;5158957;27;20134;-57
2023/06/03 09:28:14;;;;;;;3.47;0.77;;;;;;;18.14;58.89;99318.06;5158596;27;20114;-59
2023/06/03 09:30:40;;;;;;;3.33;0.75;;;;;;;17.87;58.86;99310.38;5158963;27;20047;-64
2023/06/03 09:33:06;;;;;;;2.75;0.50;;;;;;;17.00;60.27;99310.63;5158536;27;20046;-66
2023/06/03 09:35:32;;;;;;;0.57;0.57;;;;;;;16.66;63.12;99317.50;5158925;27;20400;-65
2023/06/03 09:38:00;;;;;;;0.60;0.60;;;;;;;16.34;66.28;99314.84;5158245;27;20086;-64
2023/06/03 09:40:27;;;;;;;3.80;0.70;;;;;;;16.54;67.08;99319.91;5158440;27;20115;-61
2023/06/03 09:42:53;;;;;;;4.10;0.70;;;;;;;16.77;66.58;99322.22;5158598;27;20142;-67
2023/06/03 09:45:26;;;;;;;1.92;0.70;;;;;;;16.52;66.98;99323.06;5158462;27;20301;-64
2023/06/03 09:47:52;;;;;;;0.50;0.50;;;;;;;15.76;68.43;99322.47;5158518;27;20061;-59
2023/06/03 09:50:19;;;;;;;9.82;0.88;;;;;;;15.51;71.41;99327.94;5158259;27;20050;-60
2023/06/03 09:52:45;;;;;;;0.50;0.50;;;;;;;16.14;69.95;99325.56;5158414;27;20055;-60
2023/06/03 09:55:13;;;;;;;0.60;0.60;;;;;;;17.15;65.33;99323.19;5158195;27;20070;-65
2023/06/03 09:57:40;;;;;;;0.55;0.50;;;;;;;17.50;62.44;99324.94;5158269;27;20054;-58
2023/06/03 10:00:10;;;;;;;1.75;0.70;;;;;;;18.20;61.34;99315.63;5157903;27;20069;-53
2023/06/03 10:02:38;;;;;;;0.85;0.60;;;;;;;17.73;61.30;99312.47;5158425;27;20042;-58
2023/06/03 10:05:05;;;;;;;0.85;0.60;;;;;;;18.28;60.81;99306.78;5157716;27;20070;-61
2023/06/03 10:07:31;;;;;;;0.60;0.60;;;;;;;17.78;60.23;99306.50;5158189;27;20082;-54
2023/06/03 10:10:04;;;;;;;4.38;1.80;;;;;;;17.97;60.38;99307.94;5157745;27;20438;-60
2023/06/03 10:12:32;;;;;;;0.47;0.40;;;;;;;17.71;60.76;99315.66;5157852;27;20454;-66
2023/06/03 10:14:58;;;;;;;2.13;0.65;;;;;;;17.50;60.56;99315.84;5158140;27;20053;-55
2023/06/03 10:17:24;;;;;;;2.55;0.65;;;;;;;17.54;60.61;99328.47;5158226;27;20087;-63
2023/06/03 10:19:50;;;;;;;2.15;0.70;;;;;;;17.26;62.17;99337.78;5158147;27;20042;-57
2023/06/03 10:22:18;;;;;;;2.35;1.27;;;;;;;16.84;62.99;99334.03;5157820;27;20138;-56
2023/06/03 10:24:45;;;;;;;1.13;0.52;;;;;;;16.68;64.56;99342.78;5158063;27;20408;-64
2023/06/03 10:27:13;;;;;;;1.15;0.63;;;;;;;16.98;64.83;99338.72;5157678;27;20054;-59
2023/06/03 10:29:40;;;;;;;2.67;0.57;;;;;;;17.13;62.78;99347.75;5158215;27;20055;-59
2023/06/03 10:32:08;;;;;;;1.80;0.75;;;;;;;17.48;63.12;99340.38;5159195;27;20043;-57
2023/06/03 10:34:36;;;;;;;2.85;0.70;;;;;;;17.42;63.85;99342.78;5161260;27;20499;-54
2023/06/03 10:37:04;;;;;;;0.88;0.88;;;;;;;17.33;65.75;99342.50;5161289;27;20065;-64
2023/06/03 10:39:32;;;;;;;0.70;0.70;;;;;;;17.06;65.21;99342.22;5161228;27;20106;-56
2023/06/03 10:41:59;;;;;;;4.47;0.77;;;;;;;17.76;64.03;99347.69;5161329;27;20050;-65
2023/06/03 10:44:26;;;;;;;4.45;0.90;;;;;;;18.29;63.56;99347.25;5161056;27;20054;-55
2023/06/03 10:46:56;;;;;;;0.98;0.65;;;;;;;18.69;62.06;99346.78;5161373;27;20051;-60
2023/06/03 10:49:26;;;;;;;1.05;0.93;;;;;;;18.39;61.78;99351.06;5161080;27;20096;-58
2023/06/03 10:52:09;;;;;;;1.50;0.80;;;;;;;18.28;62.63;99351.19;5161880;27;20062;-57
2023/06/03 10:54:48;;;;;;;1.85;0.90;;;;;;;17.58;64.51;99356.16;5160969;27;20099;-65
2023/06/03 10:57:18;;;;;;;1.80;0.80;;;;;;;17.52;65.14;99353.03;5161180;27;20057;-57
2023/06/03 10:59:45;;;;;;;2.33;1.02;;;;;;;17.43;65.47;99355.47;5161542;27;20051;-58
2023/06/03 11:02:13;;;;;;;0.70;0.70;;;;;;;17.59;63.96;99358.53;5160991;27;20368;-60
2023/06/03 11:04:40;;;;;;;0.60;0.60;;;;;;;17.15;63.85;99354.44;5161101;27;20137;-62
2023/06/03 11:07:27;;;;;;;3.30;0.60;;;;;;;17.41;63.93;99361.41;5160734;27;20057;-55
2023/06/03 11:09:54;;;;;;;3.72;1.23;;;;;;;17.10;66.66;99351.34;5161195;27;20078;-64
2023/06/03 11:12:20;;;;;;;10.20;1.35;;;;;;;17.10;67.12;99356.88;5160753;27;20046;-55
2023/06/03 11:14:53;;;;;;;3.25;0.70;;;;;;;17.32;65.83;99351.97;5161217;27;20043;-61
2023/06/03 11:17:21;;;;;;;3.43;0.80;;;;;;;17.10;63.56;99351.34;5160673;27;20057;-63
2023/06/03 11:19:50;;;;;;;5.85;1.00;;;;;;;17.21;65.25;99365.13;5160835;27;20053;-58
2023/06/03 11:22:40;;;;;;;6.65;0.80;;;;;;;17.62;64.54;99363.25;5160893;27;20050;-54
2023/06/03 11:25:07;;;;;;;2.90;0.70;;;;;;;16.44;66.72;99361.06;5160565;27;20061;-56
2023/06/03 11:27:33;;;;;;;2.05;0.60;;;;;;;16.01;70.16;99363.13;5160701;27;20133;-58
2023/06/03 11:30:00;;;;;;;2.13;0.63;;;;;;;15.21;72.44;99355.13;5160362;27;20047;-63
2023/06/03 11:32:29;;;;;;;3.83;1.00;;;;;;;15.59;72.98;99364.66;5160865;27;20100;-56